createdAt,value
2022-12-28T00:00:32.774Z,80
2022-12-28T00:01:39.936Z,80
2022-12-28T00:02:47.062Z,80
2022-12-28T00:03:54.205Z,80
2022-12-28T00:05:04.909Z,80
2022-12-28T00:06:12.614Z,81
2022-12-28T00:07:19.515Z,81
2022-12-28T00:08:26.780Z,81
2022-12-28T00:09:33.687Z,81
2022-12-28T00:11:06.973Z,81
2022-12-28T00:11:48.101Z,81
2022-12-28T00:12:55.246Z,81
2022-12-28T00:14:03.052Z,81
2022-12-28T00:15:10.821Z,81
2022-12-28T00:16:19.163Z,81
2022-12-28T00:17:29.175Z,81
2022-12-28T00:18:36.990Z,80
2022-12-28T00:19:44.219Z,80
2022-12-28T00:20:51.476Z,81
2022-12-28T00:22:01.376Z,80
2022-12-28T00:23:08.390Z,81
2022-12-28T00:24:15.489Z,81
2022-12-28T00:25:22.664Z,81
2022-12-28T00:26:29.847Z,81
2022-12-28T00:27:37.004Z,81
2022-12-28T00:28:44.223Z,81
2022-12-28T00:29:51.391Z,81
2022-12-28T00:30:58.515Z,81
2022-12-28T00:32:05.344Z,82
2022-12-28T00:33:12.752Z,82
2022-12-28T00:34:20.391Z,82
2022-12-28T00:35:27.347Z,82
2022-12-28T00:37:08.090Z,82
2022-12-28T00:37:41.680Z,82
2022-12-28T00:38:48.808Z,82
2022-12-28T00:39:56.279Z,82
2022-12-28T00:41:03.336Z,82
2022-12-28T00:42:10.590Z,82
2022-12-28T00:43:17.736Z,82
2022-12-28T00:44:24.810Z,82
2022-12-28T00:45:31.945Z,82
2022-12-28T00:46:39.174Z,82
2022-12-28T00:47:46.231Z,83
2022-12-28T00:48:53.482Z,83
2022-12-28T00:50:00.723Z,83
2022-12-28T00:51:08.030Z,83
2022-12-28T00:52:15.144Z,83
2022-12-28T00:53:22.312Z,83
2022-12-28T00:54:29.402Z,83
2022-12-28T00:55:36.644Z,83
2022-12-28T00:56:43.643Z,83
2022-12-28T00:57:51.682Z,84
2022-12-28T00:58:58.988Z,83
2022-12-28T01:00:06.771Z,84
2022-12-28T01:01:14.633Z,84
2022-12-28T01:02:24.177Z,83
2022-12-28T01:03:33.151Z,83
2022-12-28T01:04:40.095Z,84
2022-12-28T01:05:47.628Z,84
2022-12-28T01:06:54.863Z,84
2022-12-28T01:08:02.215Z,83
2022-12-28T01:09:09.413Z,83
2022-12-28T01:10:16.425Z,83
2022-12-28T01:11:23.699Z,84
2022-12-28T01:12:36.285Z,83
2022-12-28T01:13:40.336Z,83
2022-12-28T01:14:47.574Z,83
2022-12-28T01:15:54.768Z,83
2022-12-28T01:17:01.902Z,83
2022-12-28T01:18:08.775Z,83
2022-12-28T01:19:16.133Z,83
2022-12-28T01:20:23.980Z,83
2022-12-28T01:21:31.269Z,83
2022-12-28T01:22:38.397Z,84
2022-12-28T01:23:45.502Z,84
2022-12-28T01:24:53.007Z,84
2022-12-28T01:26:00.517Z,84
2022-12-28T01:27:08.117Z,84
2022-12-28T01:28:14.879Z,84
2022-12-28T01:29:22.083Z,84
2022-12-28T01:30:29.316Z,85
2022-12-28T01:31:37.354Z,84
2022-12-28T01:32:44.554Z,84
2022-12-28T01:33:51.895Z,84
2022-12-28T01:34:58.961Z,84
2022-12-28T01:36:06.838Z,84
2022-12-28T01:37:17.257Z,84
2022-12-28T01:38:24.160Z,84
2022-12-28T01:39:31.563Z,84
2022-12-28T01:40:38.509Z,85
2022-12-28T01:41:45.813Z,84
2022-12-28T01:42:52.799Z,85
2022-12-28T01:44:00.133Z,84
2022-12-28T01:45:07.268Z,85
2022-12-28T01:46:17.549Z,85
2022-12-28T01:47:24.570Z,85
2022-12-28T01:48:31.763Z,85
2022-12-28T01:49:39.409Z,85
2022-12-28T01:50:52.535Z,85
2022-12-28T01:51:59.630Z,85
2022-12-28T01:53:11.876Z,85
2022-12-28T01:54:19.836Z,85
2022-12-28T01:55:26.771Z,85
2022-12-28T01:56:39.759Z,85
2022-12-28T01:57:46.654Z,85
2022-12-28T01:58:53.832Z,86
2022-12-28T02:00:01.181Z,86
2022-12-28T02:01:11.493Z,86
2022-12-28T02:02:18.597Z,85
2022-12-28T02:03:26.523Z,85
2022-12-28T02:04:34.131Z,86
2022-12-28T02:05:41.025Z,86
2022-12-28T02:06:48.126Z,85
2022-12-28T02:07:55.417Z,86
2022-12-28T02:09:03.259Z,85
2022-12-28T02:10:42.000Z,85
2022-12-28T02:11:20.099Z,85
2022-12-28T02:12:27.456Z,85
2022-12-28T02:13:34.417Z,85
2022-12-28T02:14:41.552Z,86
2022-12-28T02:15:49.820Z,86
2022-12-28T02:16:57.038Z,86
2022-12-28T02:18:04.650Z,86
2022-12-28T02:19:11.389Z,86
2022-12-28T02:20:18.524Z,85
2022-12-28T02:21:25.709Z,86
2022-12-28T02:22:43.092Z,85
2022-12-28T02:23:55.602Z,86
2022-12-28T02:25:11.894Z,85
2022-12-28T02:26:17.534Z,86
2022-12-28T02:27:30.106Z,85
2022-12-28T02:28:47.689Z,85
2022-12-28T02:30:05.267Z,85
2022-12-28T02:31:15.422Z,85
2022-12-28T02:32:22.429Z,85
2022-12-28T02:33:37.590Z,85
2022-12-28T02:34:47.182Z,85
2022-12-28T02:36:00.611Z,85
2022-12-28T02:37:07.888Z,85
2022-12-28T02:38:15.049Z,85
2022-12-28T02:39:22.135Z,85
2022-12-28T02:40:29.485Z,85
2022-12-28T02:41:36.433Z,85
2022-12-28T02:42:43.634Z,85
2022-12-28T02:43:51.753Z,85
2022-12-28T02:44:58.958Z,85
2022-12-28T02:46:12.156Z,85
2022-12-28T02:47:29.826Z,85
2022-12-28T02:48:42.061Z,85
2022-12-28T02:49:54.287Z,85
2022-12-28T02:51:06.238Z,85
2022-12-28T02:52:24.087Z,85
2022-12-28T02:53:41.556Z,85
2022-12-28T02:54:53.626Z,85
2022-12-28T02:56:16.007Z,85
2022-12-28T02:57:29.602Z,85
2022-12-28T02:58:42.265Z,85
2022-12-28T02:59:54.740Z,85
2022-12-28T03:01:06.923Z,85
2022-12-28T03:02:19.182Z,85
2022-12-28T03:03:28.856Z,85
2022-12-28T03:04:46.268Z,85
2022-12-28T03:05:59.010Z,85
2022-12-28T03:07:16.742Z,85
2022-12-28T03:08:36.930Z,85
2022-12-28T03:09:54.446Z,85
2022-12-28T03:11:09.397Z,85
2022-12-28T03:12:16.797Z,85
2022-12-28T03:13:26.724Z,85
2022-12-28T03:14:41.638Z,85
2022-12-28T03:15:49.682Z,85
2022-12-28T03:16:56.944Z,85
2022-12-28T03:18:09.456Z,85
2022-12-28T03:19:21.702Z,85
2022-12-28T03:20:33.942Z,85
2022-12-28T03:21:46.425Z,85
2022-12-28T03:22:58.777Z,85
2022-12-28T03:24:11.064Z,85
2022-12-28T03:25:23.294Z,85
2022-12-28T03:26:35.514Z,85
2022-12-28T03:27:50.861Z,85
2022-12-28T03:29:03.411Z,85
2022-12-28T03:30:15.947Z,85
2022-12-28T03:31:28.407Z,84
2022-12-28T03:32:36.469Z,84
2022-12-28T03:33:43.761Z,84
2022-12-28T03:34:50.862Z,84
2022-12-28T03:35:57.972Z,84
2022-12-28T03:37:15.561Z,84
2022-12-28T03:38:28.667Z,84
2022-12-28T03:39:35.545Z,84
2022-12-28T03:40:45.765Z,84
2022-12-28T03:41:52.899Z,84
2022-12-28T03:43:05.357Z,84
2022-12-28T03:44:22.913Z,84
2022-12-28T03:45:44.596Z,84
2022-12-28T03:46:43.035Z,84
2022-12-28T03:47:53.203Z,84
2022-12-28T03:49:00.447Z,84
2022-12-28T03:50:08.466Z,84
2022-12-28T03:51:15.657Z,84
2022-12-28T03:52:25.913Z,84
2022-12-28T03:53:33.026Z,84
2022-12-28T03:54:42.687Z,84
2022-12-28T03:55:49.868Z,84
2022-12-28T03:56:57.013Z,84
2022-12-28T03:58:04.167Z,83
2022-12-28T03:59:11.602Z,84
2022-12-28T04:00:18.854Z,83
2022-12-28T04:01:26.064Z,83
2022-12-28T04:02:33.253Z,83
2022-12-28T04:03:40.243Z,83
2022-12-28T04:04:47.360Z,83
2022-12-28T04:05:54.802Z,83
2022-12-28T04:07:02.034Z,83
2022-12-28T04:08:09.083Z,83
2022-12-28T04:09:16.241Z,83
2022-12-28T04:10:23.315Z,83
2022-12-28T04:11:30.562Z,83
2022-12-28T04:12:37.819Z,83
2022-12-28T04:13:45.286Z,83
2022-12-28T04:14:52.617Z,83
2022-12-28T04:15:59.922Z,83
2022-12-28T04:17:09.872Z,83
2022-12-28T04:18:16.723Z,84
2022-12-28T04:19:23.858Z,83
2022-12-28T04:20:31.147Z,84
2022-12-28T04:21:38.340Z,83
2022-12-28T04:22:45.281Z,84
2022-12-28T04:23:52.748Z,83
2022-12-28T04:25:00.153Z,83
2022-12-28T04:26:08.293Z,83
2022-12-28T04:27:15.122Z,83
2022-12-28T04:28:22.412Z,83
2022-12-28T04:29:29.411Z,83
2022-12-28T04:30:36.443Z,84
2022-12-28T04:31:43.694Z,84
2022-12-28T04:32:50.821Z,83
2022-12-28T04:33:58.028Z,83
2022-12-28T04:35:05.487Z,83
2022-12-28T04:36:12.443Z,84
2022-12-28T04:37:19.621Z,83
2022-12-28T04:38:27.011Z,83
2022-12-28T04:39:54.557Z,83
2022-12-28T04:40:41.066Z,83
2022-12-28T04:41:48.410Z,83
2022-12-28T04:42:55.363Z,83
2022-12-28T04:44:02.294Z,83
2022-12-28T04:45:09.418Z,83
2022-12-28T04:46:16.576Z,83
2022-12-28T04:47:23.771Z,83
2022-12-28T04:48:30.844Z,83
2022-12-28T04:49:38.155Z,83
2022-12-28T04:50:45.165Z,83
2022-12-28T04:51:52.286Z,83
2022-12-28T04:52:59.092Z,83
2022-12-28T04:54:06.559Z,83
2022-12-28T04:55:31.683Z,83
2022-12-28T04:56:23.836Z,83
2022-12-28T04:57:30.869Z,83
2022-12-28T04:58:37.966Z,83
2022-12-28T04:59:45.134Z,84
2022-12-28T05:00:52.287Z,83
2022-12-28T05:01:59.325Z,83
2022-12-28T05:03:06.337Z,83
2022-12-28T05:04:13.554Z,83
2022-12-28T05:05:20.625Z,83
2022-12-28T05:06:27.920Z,83
2022-12-28T05:07:34.971Z,83
2022-12-28T05:08:42.364Z,83
2022-12-28T05:09:49.254Z,83
2022-12-28T05:10:56.459Z,83
2022-12-28T05:12:03.271Z,83
2022-12-28T05:13:10.457Z,83
2022-12-28T05:14:17.641Z,83
2022-12-28T05:15:24.880Z,83
2022-12-28T05:16:32.012Z,83
2022-12-28T05:17:40.235Z,83
2022-12-28T05:18:47.467Z,83
2022-12-28T05:19:54.498Z,83
2022-12-28T05:21:01.270Z,83
2022-12-28T05:22:09.643Z,83
2022-12-28T05:23:16.688Z,83
2022-12-28T05:24:23.742Z,83
2022-12-28T05:25:30.822Z,83
2022-12-28T05:26:38.017Z,83
2022-12-28T05:27:45.207Z,83
2022-12-28T05:28:52.332Z,83
2022-12-28T05:29:59.261Z,83
2022-12-28T05:31:06.374Z,83
2022-12-28T05:32:13.517Z,83
2022-12-28T05:33:21.583Z,83
2022-12-28T05:34:28.815Z,83
2022-12-28T05:35:36.026Z,83
2022-12-28T05:36:43.178Z,83
2022-12-28T05:37:50.287Z,83
2022-12-28T05:38:57.470Z,83
2022-12-28T05:40:04.355Z,83
2022-12-28T05:41:12.831Z,83
2022-12-28T05:42:25.266Z,83
2022-12-28T05:43:32.337Z,83
2022-12-28T05:44:39.546Z,82
2022-12-28T05:45:46.658Z,83
2022-12-28T05:46:53.884Z,82
2022-12-28T05:48:01.149Z,83
2022-12-28T05:49:09.256Z,82
2022-12-28T05:50:16.485Z,82
2022-12-28T05:51:23.760Z,82
2022-12-28T05:52:30.858Z,82
2022-12-28T05:53:38.062Z,82
2022-12-28T05:54:46.327Z,82
2022-12-28T05:55:53.597Z,82
2022-12-28T05:57:05.923Z,82
2022-12-28T05:58:13.067Z,82
2022-12-28T05:59:20.957Z,82
2022-12-28T06:00:28.744Z,82
2022-12-28T06:01:36.134Z,82
2022-12-28T06:02:43.266Z,82
2022-12-28T06:03:51.712Z,82
2022-12-28T06:04:59.191Z,82
2022-12-28T06:06:06.504Z,82
2022-12-28T06:07:16.147Z,82
2022-12-28T06:08:23.560Z,82
2022-12-28T06:09:30.499Z,82
2022-12-28T06:10:37.638Z,82
2022-12-28T06:11:44.960Z,82
2022-12-28T06:12:52.731Z,82
2022-12-28T06:14:00.784Z,82
2022-12-28T06:15:07.959Z,82
2022-12-28T06:16:15.216Z,82
2022-12-28T06:17:22.264Z,82
2022-12-28T06:18:29.432Z,82
2022-12-28T06:19:36.798Z,82
2022-12-28T06:20:43.820Z,82
2022-12-28T06:21:51.435Z,82
2022-12-28T06:22:59.566Z,82
2022-12-28T06:24:06.416Z,82
2022-12-28T06:25:13.591Z,81
2022-12-28T06:26:20.809Z,82
2022-12-28T06:27:27.955Z,82
2022-12-28T06:28:35.997Z,82
2022-12-28T06:29:43.254Z,82
2022-12-28T06:30:52.706Z,81
2022-12-28T06:31:58.450Z,82
2022-12-28T06:33:05.453Z,82
2022-12-28T06:34:12.579Z,82
2022-12-28T06:35:19.692Z,81
2022-12-28T06:36:27.415Z,82
2022-12-28T06:37:37.573Z,82
2022-12-28T06:38:46.384Z,82
2022-12-28T06:39:53.481Z,82
2022-12-28T06:41:13.199Z,81
2022-12-28T06:42:07.510Z,82
2022-12-28T06:43:14.638Z,82
2022-12-28T06:44:21.774Z,82
2022-12-28T06:45:29.010Z,82
2022-12-28T06:46:36.181Z,82
2022-12-28T06:47:43.221Z,82
2022-12-28T06:48:50.401Z,82
2022-12-28T06:49:57.716Z,82
2022-12-28T06:51:05.880Z,82
2022-12-28T06:52:15.699Z,82
2022-12-28T06:53:23.024Z,82
2022-12-28T06:54:30.151Z,82
2022-12-28T06:55:37.077Z,82
2022-12-28T06:56:44.310Z,82
2022-12-28T06:57:51.589Z,82
2022-12-28T06:59:03.134Z,82
2022-12-28T07:00:07.203Z,82
2022-12-28T07:01:16.072Z,82
2022-12-28T07:02:23.344Z,82
2022-12-28T07:03:30.387Z,82
2022-12-28T07:04:37.577Z,82
2022-12-28T07:05:44.837Z,82
2022-12-28T07:06:51.843Z,82
2022-12-28T07:07:58.890Z,82
2022-12-28T07:09:05.759Z,82
2022-12-28T07:10:12.905Z,81
2022-12-28T07:11:20.651Z,82
2022-12-28T07:12:28.138Z,82
2022-12-28T07:13:35.371Z,82
2022-12-28T07:14:42.632Z,82
2022-12-28T07:15:49.824Z,82
2022-12-28T07:16:57.732Z,82
2022-12-28T07:18:04.878Z,82
2022-12-28T07:19:13.179Z,82
2022-12-28T07:20:20.207Z,82
2022-12-28T07:21:27.294Z,81
2022-12-28T07:22:34.429Z,82
2022-12-28T07:23:41.606Z,81
2022-12-28T07:24:48.958Z,81
2022-12-28T07:25:56.003Z,81
2022-12-28T07:27:03.290Z,81
2022-12-28T07:28:10.391Z,82
2022-12-28T07:29:17.603Z,82
2022-12-28T07:30:24.910Z,82
2022-12-28T07:31:33.790Z,81
2022-12-28T07:32:39.650Z,81
2022-12-28T07:33:46.797Z,81
2022-12-28T07:34:53.857Z,81
2022-12-28T07:36:00.766Z,81
2022-12-28T07:37:07.897Z,81
2022-12-28T07:38:19.544Z,81
2022-12-28T07:39:22.343Z,81
2022-12-28T07:40:29.397Z,81
2022-12-28T07:41:36.518Z,81
2022-12-28T07:42:43.757Z,81
2022-12-28T07:43:50.914Z,81
2022-12-28T07:44:58.134Z,80
2022-12-28T07:46:05.403Z,81
2022-12-28T07:47:12.606Z,81
2022-12-28T07:48:19.763Z,81
2022-12-28T07:49:26.902Z,81
2022-12-28T07:50:37.737Z,81
2022-12-28T07:51:41.383Z,80
2022-12-28T07:52:48.322Z,81
2022-12-28T07:53:55.497Z,81
2022-12-28T07:55:02.445Z,81
2022-12-28T07:56:09.588Z,81
2022-12-28T07:57:16.761Z,81
2022-12-28T07:58:23.929Z,81
2022-12-28T07:59:31.434Z,80
2022-12-28T08:00:38.246Z,80
2022-12-28T08:01:45.431Z,80
2022-12-28T08:02:55.554Z,80
2022-12-28T08:04:02.608Z,80
2022-12-28T08:05:12.193Z,81
2022-12-28T08:06:19.484Z,81
2022-12-28T08:07:26.698Z,80
2022-12-28T08:08:33.666Z,80
2022-12-28T08:09:40.838Z,81
2022-12-28T08:10:48.498Z,80
2022-12-28T08:11:56.849Z,80
2022-12-28T08:13:04.923Z,80
2022-12-28T08:14:12.649Z,80
2022-12-28T08:15:19.805Z,80
2022-12-28T08:16:27.134Z,80
2022-12-28T08:17:34.993Z,80
2022-12-28T08:18:41.879Z,80
2022-12-28T08:19:49.026Z,79
2022-12-28T08:20:56.237Z,80
2022-12-28T08:22:03.597Z,80
2022-12-28T08:23:11.391Z,80
2022-12-28T08:24:18.443Z,79
2022-12-28T08:25:25.609Z,80
2022-12-28T08:26:33.749Z,79
2022-12-28T08:27:41.102Z,79
2022-12-28T08:28:48.144Z,79
2022-12-28T08:29:56.045Z,79
2022-12-28T08:31:03.180Z,79
2022-12-28T08:32:15.294Z,79
2022-12-28T08:33:22.566Z,79
2022-12-28T08:34:29.586Z,78
2022-12-28T08:35:36.808Z,78
2022-12-28T08:36:44.141Z,78
2022-12-28T08:37:51.103Z,78
2022-12-28T08:38:58.204Z,78
2022-12-28T08:40:06.089Z,78
2022-12-28T08:41:13.837Z,78
2022-12-28T08:42:21.072Z,79
2022-12-28T08:43:28.162Z,79
2022-12-28T08:44:35.322Z,78
2022-12-28T08:45:42.274Z,78
2022-12-28T08:46:50.698Z,77
2022-12-28T08:47:57.577Z,78
2022-12-28T08:49:04.635Z,78
2022-12-28T08:50:12.398Z,77
2022-12-28T08:51:19.031Z,77
2022-12-28T08:52:31.317Z,77
2022-12-28T08:53:38.678Z,77
2022-12-28T08:54:45.935Z,77
2022-12-28T08:55:53.130Z,76
2022-12-28T08:57:00.017Z,77
2022-12-28T08:58:07.180Z,77
2022-12-28T08:59:14.661Z,77
2022-12-28T09:00:22.167Z,77
2022-12-28T09:01:29.479Z,77
2022-12-28T09:02:39.900Z,77
2022-12-28T09:03:46.708Z,77
2022-12-28T09:04:54.094Z,76
2022-12-28T09:06:04.877Z,76
2022-12-28T09:07:15.582Z,76
2022-12-28T09:08:24.079Z,76
2022-12-28T09:09:31.319Z,76
2022-12-28T09:10:38.845Z,77
2022-12-28T09:11:45.679Z,76
2022-12-28T09:12:52.600Z,76
2022-12-28T09:13:59.635Z,77
2022-12-28T09:15:06.778Z,77
2022-12-28T09:16:14.055Z,77
2022-12-28T09:17:21.080Z,76
2022-12-28T09:18:28.204Z,76
2022-12-28T09:19:35.483Z,76
2022-12-28T09:20:47.636Z,76
2022-12-28T09:21:49.715Z,76
2022-12-28T09:22:56.879Z,76
2022-12-28T09:24:03.795Z,76
2022-12-28T09:25:10.980Z,76
2022-12-28T09:26:18.258Z,76
2022-12-28T09:27:25.257Z,75
2022-12-28T09:28:32.377Z,76
2022-12-28T09:29:39.559Z,76
2022-12-28T09:30:46.731Z,75
2022-12-28T09:31:54.075Z,75
2022-12-28T09:33:01.427Z,75
2022-12-28T09:35:20.931Z,75
2022-12-28T09:36:27.907Z,75
2022-12-28T09:37:37.703Z,75
2022-12-28T09:38:44.849Z,75
2022-12-28T09:39:52.995Z,75
2022-12-28T09:40:59.090Z,74
2022-12-28T09:42:06.324Z,74
2022-12-28T09:43:16.196Z,74
2022-12-28T09:44:23.547Z,75
2022-12-28T09:45:30.516Z,74
2022-12-28T09:46:37.725Z,74
2022-12-28T09:47:50.049Z,74
2022-12-28T09:48:57.146Z,74
2022-12-28T09:50:04.035Z,74
2022-12-28T09:51:19.483Z,74
2022-12-28T09:52:26.499Z,74
2022-12-28T09:53:36.279Z,74
2022-12-28T09:54:43.421Z,74
2022-12-28T09:55:50.595Z,74
2022-12-28T09:57:08.503Z,74
2022-12-28T09:58:15.359Z,74
2022-12-28T09:59:22.517Z,74
2022-12-28T10:00:29.727Z,74
2022-12-28T10:01:42.110Z,74
2022-12-28T10:02:49.255Z,74
2022-12-28T10:03:56.286Z,74
2022-12-28T10:05:03.323Z,74
2022-12-28T10:06:10.431Z,74
2022-12-28T10:07:17.462Z,74
2022-12-28T10:08:24.628Z,74
2022-12-28T10:09:31.779Z,74
2022-12-28T10:10:39.349Z,74
2022-12-28T10:11:46.264Z,74
2022-12-28T10:12:53.331Z,74
2022-12-28T10:14:00.343Z,73
2022-12-28T10:15:07.341Z,73
2022-12-28T10:16:17.095Z,73
2022-12-28T10:17:24.163Z,73
2022-12-28T10:18:34.659Z,73
2022-12-28T10:19:38.643Z,73
2022-12-28T10:20:45.769Z,73
2022-12-28T10:21:52.796Z,73
2022-12-28T10:22:59.875Z,73
2022-12-28T10:24:33.384Z,74
2022-12-28T10:25:13.933Z,74
2022-12-28T10:26:21.107Z,73
2022-12-28T10:27:28.319Z,72
2022-12-28T10:28:35.400Z,71
2022-12-28T10:29:45.189Z,71
2022-12-28T10:30:54.939Z,71
2022-12-28T10:32:06.826Z,70
2022-12-28T10:33:14.186Z,70
2022-12-28T10:34:21.169Z,73
2022-12-28T10:35:28.336Z,70
2022-12-28T10:36:45.737Z,70
2022-12-28T10:37:52.819Z,70
2022-12-28T10:39:00.000Z,69
2022-12-28T10:40:06.832Z,68
2022-12-28T10:41:14.064Z,68
2022-12-28T10:42:21.342Z,67
2022-12-28T10:43:31.543Z,67
2022-12-28T10:44:43.688Z,67
2022-12-28T10:45:50.845Z,66
2022-12-28T10:46:58.192Z,66
2022-12-28T10:48:05.328Z,65
2022-12-28T10:49:15.618Z,65
2022-12-28T10:50:36.407Z,65
2022-12-28T10:51:37.136Z,65
2022-12-28T10:52:44.179Z,65
2022-12-28T10:53:51.392Z,66
2022-12-28T10:55:07.728Z,66
2022-12-28T10:56:08.405Z,65
2022-12-28T10:57:15.580Z,65
2022-12-28T10:58:32.035Z,65
2022-12-28T10:59:29.861Z,66
2022-12-28T11:00:37.077Z,66
2022-12-28T11:01:44.277Z,66
2022-12-28T11:02:51.519Z,65
2022-12-28T11:03:58.038Z,65
2022-12-28T11:05:05.310Z,66
2022-12-28T11:06:12.424Z,66
2022-12-28T11:07:24.716Z,66
2022-12-28T11:08:31.836Z,66
2022-12-28T11:09:38.965Z,66
2022-12-28T11:10:46.119Z,66
2022-12-28T11:11:53.268Z,66
2022-12-28T11:13:00.095Z,66
2022-12-28T11:14:07.487Z,66
2022-12-28T11:15:19.568Z,66
2022-12-28T11:16:26.719Z,66
2022-12-28T11:17:33.920Z,66
2022-12-28T11:18:41.004Z,66
2022-12-28T11:19:48.128Z,66
2022-12-28T11:20:57.824Z,66
2022-12-28T11:22:04.648Z,66
2022-12-28T11:23:14.296Z,66
2022-12-28T11:24:26.596Z,66
2022-12-28T11:25:33.799Z,66
2022-12-28T11:26:40.863Z,66
2022-12-28T11:27:48.116Z,65
2022-12-28T11:28:55.284Z,66
2022-12-28T11:30:02.171Z,65
2022-12-28T11:31:09.342Z,65
2022-12-28T11:32:21.555Z,65
2022-12-28T11:33:28.753Z,65
2022-12-28T11:34:35.804Z,66
2022-12-28T11:35:43.018Z,65
2022-12-28T11:36:50.229Z,65
2022-12-28T11:37:57.488Z,65
2022-12-28T11:39:04.734Z,65
2022-12-28T11:40:22.129Z,65
2022-12-28T11:41:37.440Z,65
2022-12-28T11:42:44.591Z,65
2022-12-28T11:43:56.803Z,65
2022-12-28T11:45:03.715Z,65
2022-12-28T11:46:16.043Z,65
2022-12-28T11:47:28.416Z,66
2022-12-28T11:48:32.875Z,65
2022-12-28T11:49:45.558Z,66
2022-12-28T11:50:52.744Z,65
2022-12-28T11:52:00.123Z,66
2022-12-28T11:53:17.735Z,66
2022-12-28T11:54:24.645Z,66
2022-12-28T11:55:39.533Z,66
2022-12-28T11:56:46.889Z,66
2022-12-28T11:57:53.873Z,66
2022-12-28T11:59:01.192Z,66
2022-12-28T12:00:08.384Z,66
2022-12-28T12:01:20.779Z,66
2022-12-28T12:02:30.992Z,67
2022-12-28T12:03:41.122Z,67
2022-12-28T12:04:58.451Z,67
2022-12-28T12:06:05.552Z,67
2022-12-28T12:07:12.563Z,66
2022-12-28T12:08:22.377Z,66
2022-12-28T12:09:34.488Z,67
2022-12-28T12:10:41.697Z,66
2022-12-28T12:11:49.024Z,67
2022-12-28T12:12:55.994Z,67
2022-12-28T12:14:02.831Z,66
2022-12-28T12:15:10.018Z,66
2022-12-28T12:16:17.461Z,66
2022-12-28T12:17:33.968Z,67
2022-12-28T12:18:44.816Z,67
2022-12-28T12:19:54.491Z,67
2022-12-28T12:21:10.220Z,67
2022-12-28T12:22:14.240Z,66
2022-12-28T12:23:24.398Z,66
2022-12-28T12:24:31.569Z,67
2022-12-28T12:25:38.707Z,67
2022-12-28T12:26:48.416Z,66
2022-12-28T12:28:00.821Z,66
2022-12-28T12:29:16.381Z,66
2022-12-28T12:30:26.539Z,66
2022-12-28T12:31:33.613Z,66
2022-12-28T12:32:43.380Z,66
2022-12-28T12:33:55.527Z,66
2022-12-28T12:35:10.600Z,66
2022-12-28T12:36:17.751Z,66
2022-12-28T12:37:35.150Z,66
2022-12-28T12:38:52.571Z,66
2022-12-28T12:40:04.636Z,66
2022-12-28T12:41:21.883Z,66
2022-12-28T12:42:34.170Z,66
2022-12-28T12:43:43.847Z,66
2022-12-28T12:44:53.575Z,66
2022-12-28T12:46:06.135Z,66
2022-12-28T12:47:23.479Z,66
2022-12-28T12:48:35.739Z,66
2022-12-28T12:49:51.200Z,66
2022-12-28T12:51:03.751Z,66
2022-12-28T12:52:18.929Z,66
2022-12-28T12:53:31.193Z,66
2022-12-28T12:54:48.660Z,66
2022-12-28T12:56:00.629Z,65
2022-12-28T12:57:10.323Z,65
2022-12-28T12:58:25.072Z,65
2022-12-28T12:59:37.360Z,65
2022-12-28T13:00:52.201Z,65
2022-12-28T13:02:04.356Z,65
2022-12-28T13:03:16.542Z,65
2022-12-28T13:04:23.620Z,66
2022-12-28T13:05:30.865Z,66
2022-12-28T13:06:38.224Z,66
2022-12-28T13:07:45.280Z,66
2022-12-28T13:08:54.575Z,66
2022-12-28T13:10:03.076Z,66
2022-12-28T13:11:10.405Z,66
2022-12-28T13:12:17.548Z,66
2022-12-28T13:13:24.689Z,66
2022-12-28T13:14:31.864Z,66
2022-12-28T13:15:39.192Z,66
2022-12-28T13:16:46.287Z,66
2022-12-28T13:17:55.388Z,66
2022-12-28T13:19:08.367Z,66
2022-12-28T13:20:15.630Z,66
2022-12-28T13:21:22.702Z,66
2022-12-28T13:22:29.864Z,66
2022-12-28T13:23:36.959Z,66
2022-12-28T13:24:46.704Z,66
2022-12-28T13:25:53.809Z,66
2022-12-28T13:27:07.691Z,66
2022-12-28T13:28:10.894Z,66
2022-12-28T13:29:25.779Z,66
2022-12-28T13:30:37.998Z,66
2022-12-28T13:31:45.184Z,67
2022-12-28T13:32:54.895Z,66
2022-12-28T13:34:01.822Z,67
2022-12-28T13:35:08.895Z,67
2022-12-28T13:36:21.125Z,66
2022-12-28T13:37:27.836Z,66
2022-12-28T13:38:35.044Z,66
2022-12-28T13:39:42.710Z,66
2022-12-28T13:40:49.371Z,68
2022-12-28T13:41:56.458Z,68
2022-12-28T13:43:06.312Z,68
2022-12-28T13:44:23.766Z,69
2022-12-28T13:45:42.945Z,68
2022-12-28T13:46:48.210Z,68
2022-12-28T13:47:57.945Z,68
2022-12-28T13:49:04.816Z,69
2022-12-28T13:50:11.938Z,68
2022-12-28T13:51:21.676Z,68
2022-12-28T13:52:29.017Z,69
2022-12-28T13:53:41.071Z,69
2022-12-28T13:54:51.312Z,69
2022-12-28T13:55:58.586Z,69
2022-12-28T13:57:36.270Z,69
2022-12-28T13:58:12.522Z,69
2022-12-28T13:59:19.630Z,69
2022-12-28T14:00:26.880Z,69
2022-12-28T14:01:34.135Z,69
2022-12-28T14:02:41.176Z,69
2022-12-28T14:03:50.240Z,69
2022-12-28T14:05:00.792Z,70
2022-12-28T14:06:08.127Z,70
2022-12-28T14:07:15.077Z,69
2022-12-28T14:08:22.204Z,70
2022-12-28T14:09:29.428Z,70
2022-12-28T14:10:36.457Z,70
2022-12-28T14:11:43.794Z,70
2022-12-28T14:12:51.008Z,70
2022-12-28T14:13:57.997Z,70
2022-12-28T14:15:04.869Z,70
2022-12-28T14:16:12.542Z,70
2022-12-28T14:17:19.837Z,70
2022-12-28T14:18:32.245Z,70
2022-12-28T14:19:39.165Z,70
2022-12-28T14:20:45.825Z,70
2022-12-28T14:21:53.012Z,70
2022-12-28T14:23:00.156Z,70
2022-12-28T14:24:17.696Z,70
2022-12-28T14:25:24.600Z,70
2022-12-28T14:26:31.524Z,70
2022-12-28T14:27:38.729Z,70
2022-12-28T14:28:45.851Z,70
2022-12-28T14:29:55.572Z,70
2022-12-28T14:31:02.488Z,70
2022-12-28T14:32:09.659Z,70
2022-12-28T14:33:22.441Z,70
2022-12-28T14:34:23.872Z,70
2022-12-28T14:35:30.636Z,70
2022-12-28T14:36:37.681Z,70
2022-12-28T14:37:44.826Z,70
2022-12-28T14:38:57.242Z,70
2022-12-28T14:40:01.444Z,70
2022-12-28T14:41:09.244Z,70
2022-12-28T14:42:21.355Z,70
2022-12-28T14:43:28.063Z,70
2022-12-28T14:44:35.349Z,70
2022-12-28T14:46:05.658Z,70
2022-12-28T14:46:49.530Z,70
2022-12-28T14:47:56.737Z,70
2022-12-28T14:49:03.567Z,70
2022-12-28T14:50:20.916Z,70
2022-12-28T14:51:28.045Z,70
2022-12-28T14:52:35.186Z,70
2022-12-28T14:53:47.600Z,70
2022-12-28T14:55:05.120Z,70
2022-12-28T14:56:22.484Z,70
2022-12-28T14:57:29.612Z,70
2022-12-28T14:58:39.330Z,70
2022-12-28T14:59:51.540Z,70
2022-12-28T15:01:08.641Z,70
2022-12-28T15:02:15.864Z,70
2022-12-28T15:03:33.186Z,70
2022-12-28T15:04:52.697Z,70
2022-12-28T15:05:57.893Z,70
2022-12-28T15:07:05.012Z,70
2022-12-28T15:08:12.161Z,70
2022-12-28T15:09:18.845Z,70
2022-12-28T15:10:25.913Z,70
2022-12-28T15:11:32.620Z,70
2022-12-28T15:12:39.755Z,70
2022-12-28T15:13:46.847Z,70
2022-12-28T15:14:53.512Z,70
2022-12-28T15:16:00.709Z,70
2022-12-28T15:17:10.596Z,69
2022-12-28T15:18:17.757Z,70
2022-12-28T15:19:25.177Z,69
2022-12-28T15:20:32.147Z,69
2022-12-28T15:21:39.104Z,69
2022-12-28T15:22:45.797Z,69
2022-12-28T15:23:52.575Z,69
2022-12-28T15:24:59.560Z,69
2022-12-28T15:26:06.581Z,69
2022-12-28T15:27:13.894Z,69
2022-12-28T15:28:20.811Z,69
2022-12-28T15:29:47.800Z,70
2022-12-28T15:30:34.681Z,70
2022-12-28T15:31:45.004Z,70
2022-12-28T15:32:51.998Z,70
2022-12-28T15:33:59.367Z,70
2022-12-28T15:35:06.785Z,70
2022-12-28T15:36:17.560Z,70
2022-12-28T15:37:20.754Z,70
2022-12-28T15:38:27.390Z,70
2022-12-28T15:39:34.602Z,70
2022-12-28T15:40:41.938Z,70
2022-12-28T15:41:48.932Z,70
2022-12-28T15:42:56.057Z,71
2022-12-28T15:44:02.946Z,70
2022-12-28T15:45:10.114Z,71
2022-12-28T15:46:17.348Z,71
2022-12-28T15:47:24.511Z,71
2022-12-28T15:48:31.625Z,71
2022-12-28T15:49:38.663Z,71
2022-12-28T15:50:45.812Z,71
2022-12-28T15:51:52.612Z,71
2022-12-28T15:52:59.686Z,71
2022-12-28T15:54:06.472Z,70
2022-12-28T15:55:13.699Z,71
2022-12-28T15:56:20.894Z,71
2022-12-28T15:57:30.548Z,71
2022-12-28T15:58:37.701Z,71
2022-12-28T15:59:44.931Z,71
2022-12-28T16:00:52.131Z,71
2022-12-28T16:01:59.446Z,71
2022-12-28T16:03:06.229Z,71
2022-12-28T16:04:13.275Z,71
2022-12-28T16:05:20.471Z,71
2022-12-28T16:06:27.580Z,71
2022-12-28T16:07:34.761Z,71
2022-12-28T16:08:41.858Z,71
2022-12-28T16:09:49.075Z,71
2022-12-28T16:10:56.224Z,71
2022-12-28T16:12:11.223Z,71
2022-12-28T16:13:18.351Z,70
2022-12-28T16:14:25.573Z,71
2022-12-28T16:15:32.680Z,70
2022-12-28T16:16:40.059Z,71